createdAt,value
2019-05-14T00:02:17.336Z,2.73
2019-05-14T00:07:22.764Z,3.13
2019-05-14T00:12:28.184Z,3.57
2019-05-14T00:17:33.724Z,3.53
2019-05-14T00:22:41.501Z,3.60
2019-05-14T00:27:46.332Z,3.40
2019-05-14T00:32:52.156Z,4.10
2019-05-14T00:37:57.675Z,4.00
2019-05-14T00:43:03.009Z,3.93
2019-05-14T00:48:08.461Z,3.50
2019-05-14T00:53:14.026Z,3.67
2019-05-14T00:58:21.567Z,4.00
2019-05-14T01:03:26.517Z,4.33
2019-05-14T01:08:32.049Z,3.40
2019-05-14T01:13:37.549Z,3.27
2019-05-14T01:18:45.774Z,2.00
2019-05-14T01:23:51.468Z,2.57
2019-05-14T01:28:57.081Z,3.03
2019-05-14T01:34:02.662Z,2.22
2019-05-14T01:39:08.451Z,2.60
2019-05-14T01:44:13.920Z,2.57
2019-05-14T01:49:19.297Z,2.13
2019-05-14T01:54:24.801Z,2.07
2019-05-14T01:59:32.213Z,1.70
2019-05-14T02:04:37.151Z,2.10
2019-05-14T02:09:42.729Z,2.30
2019-05-14T02:14:48.051Z,2.90
2019-05-14T02:19:53.477Z,2.10
2019-05-14T02:24:58.961Z,2.60
2019-05-14T02:30:04.654Z,3.03
2019-05-14T02:35:10.513Z,3.07
2019-05-14T02:40:20.259Z,3.53
2019-05-14T02:45:24.899Z,2.57
2019-05-14T02:50:30.354Z,3.50
2019-05-14T02:55:35.705Z,2.60
2019-05-14T03:00:41.093Z,2.50
2019-05-14T03:05:49.270Z,3.03
2019-05-14T03:10:53.548Z,2.63
2019-05-14T03:15:59.708Z,2.53
2019-05-14T03:21:05.504Z,3.57
2019-05-14T03:26:11.270Z,4.00
2019-05-14T03:31:21.754Z,3.27
2019-05-14T03:36:27.006Z,3.35
2019-05-14T03:41:35.652Z,3.50
2019-05-14T03:46:51.317Z,2.83
2019-05-14T03:51:49.820Z,3.23
2019-05-14T03:56:55.742Z,3.93
2019-05-14T04:02:01.334Z,3.40
2019-05-14T04:07:09.984Z,3.63
2019-05-14T04:12:18.934Z,4.10
2019-05-14T04:17:33.704Z,3.40
2019-05-14T04:22:33.659Z,3.05
2019-05-14T04:27:41.906Z,3.67
2019-05-14T04:32:50.460Z,3.73
2019-05-14T04:37:58.882Z,3.43
2019-05-14T04:43:03.611Z,3.20
2019-05-14T04:48:27.337Z,3.30
2019-05-14T04:53:19.267Z,3.67
2019-05-14T04:58:23.684Z,3.57
2019-05-14T05:03:31.310Z,3.20
2019-05-14T05:08:39.185Z,3.67
2019-05-14T05:13:43.305Z,3.60
2019-05-14T05:18:49.443Z,3.97
2019-05-14T05:23:55.031Z,3.63
2019-05-14T05:29:06.591Z,3.87
2019-05-14T05:34:08.910Z,4.07
2019-05-14T05:39:14.619Z,3.90
2019-05-14T05:44:20.205Z,3.70
2019-05-14T05:49:26.234Z,3.10
2019-05-14T05:54:31.755Z,4.05
2019-05-14T05:59:39.343Z,4.17
2019-05-14T06:04:44.474Z,4.70
2019-05-14T06:09:49.904Z,4.03
2019-05-14T06:14:55.351Z,3.50
2019-05-14T06:20:00.896Z,3.83
2019-05-14T06:25:11.088Z,4.43
2019-05-14T06:30:14.818Z,4.30
2019-05-14T06:35:20.489Z,4.27
2019-05-14T06:40:28.595Z,4.17
2019-05-14T06:45:33.416Z,4.17
2019-05-14T06:50:39.274Z,3.90
2019-05-14T06:55:45.191Z,4.83
2019-05-14T07:00:50.631Z,5.57
2019-05-14T07:05:56.205Z,4.60
2019-05-14T07:11:01.855Z,6.10
2019-05-14T07:16:09.213Z,5.40
2019-05-14T07:21:14.867Z,5.40
2019-05-14T07:26:20.419Z,6.50
2019-05-14T07:31:28.917Z,5.93
2019-05-14T07:36:33.601Z,5.77
2019-05-14T07:41:39.241Z,5.37
2019-05-14T07:46:44.695Z,5.93
2019-05-14T07:51:50.150Z,5.93
2019-05-14T07:56:55.803Z,5.47
2019-05-14T08:02:01.343Z,6.20
2019-05-14T08:07:08.994Z,6.00
2019-05-14T08:12:16.264Z,5.93
2019-05-14T08:17:21.104Z,6.00
2019-05-14T08:22:28.986Z,5.53
2019-05-14T08:27:33.781Z,5.93
2019-05-14T08:32:39.340Z,6.07
2019-05-14T08:37:44.684Z,5.43
2019-05-14T08:42:50.164Z,5.50
2019-05-14T08:47:55.780Z,6.35
2019-05-14T08:53:01.963Z,5.67
2019-05-14T08:58:13.071Z,6.17
2019-05-14T09:03:14.794Z,5.63
2019-05-14T09:08:20.396Z,5.37
2019-05-14T09:13:25.797Z,4.80
2019-05-14T09:18:31.160Z,4.97
2019-05-14T09:23:38.875Z,5.53
2019-05-14T09:28:43.769Z,4.93
2019-05-14T09:33:49.578Z,4.53
2019-05-14T09:38:55.293Z,4.33
2019-05-14T09:44:00.932Z,4.70
2019-05-14T09:49:08.045Z,6.03
2019-05-14T09:54:13.626Z,4.53
2019-05-14T09:59:19.173Z,4.67
2019-05-14T10:04:24.661Z,4.77
2019-05-14T10:09:30.196Z,4.13
2019-05-14T10:14:35.704Z,4.80
2019-05-14T10:19:41.156Z,4.60
2019-05-14T10:24:46.664Z,5.13
2019-05-14T10:29:52.005Z,5.47
2019-05-14T10:34:58.964Z,5.33
2019-05-14T10:40:05.686Z,5.10
2019-05-14T10:45:12.909Z,5.10
2019-05-14T10:50:18.794Z,4.50
2019-05-14T10:55:24.276Z,5.47
2019-05-14T11:00:29.825Z,5.60
2019-05-14T11:05:35.280Z,5.00
2019-05-14T11:10:42.195Z,4.90
2019-05-14T11:15:48.680Z,5.47
2019-05-14T11:20:54.297Z,4.17
2019-05-14T11:25:59.976Z,5.33
2019-05-14T11:31:05.377Z,4.67
2019-05-14T11:36:10.959Z,4.97
2019-05-14T11:41:18.633Z,4.10
2019-05-14T11:46:38.844Z,4.57
2019-05-14T11:51:58.975Z,5.10
2019-05-14T11:56:41.960Z,4.73
2019-05-14T12:01:44.804Z,6.57
2019-05-14T12:06:50.293Z,4.50
2019-05-14T12:11:55.676Z,4.63
2019-05-14T12:17:01.124Z,4.50
2019-05-14T12:22:11.002Z,4.50
2019-05-14T12:27:13.991Z,5.00
2019-05-14T12:32:19.530Z,4.70
2019-05-14T12:37:25.144Z,5.30
2019-05-14T12:42:30.597Z,5.30
2019-05-14T12:47:38.384Z,5.40
2019-05-14T12:52:43.226Z,5.30
2019-05-14T12:57:48.798Z,4.43
2019-05-14T13:02:54.138Z,5.63
2019-05-14T13:07:59.609Z,5.17
2019-05-14T13:13:05.501Z,5.30
2019-05-14T13:18:11.085Z,5.17
2019-05-14T13:23:18.342Z,5.20
2019-05-14T13:28:23.973Z,4.80
2019-05-14T13:33:29.379Z,4.77
2019-05-14T13:38:34.825Z,5.62
2019-05-14T13:43:40.349Z,5.87
2019-05-14T13:48:45.923Z,6.37
2019-05-14T13:53:51.294Z,6.23
2019-05-14T13:58:59.095Z,6.13
2019-05-14T14:04:11.326Z,5.97
2019-05-14T14:09:12.417Z,7.10
2019-05-14T14:14:20.141Z,5.83
2019-05-14T14:19:28.058Z,5.83
2019-05-14T14:24:33.127Z,6.72
2019-05-14T14:29:39.565Z,7.07
2019-05-14T14:34:45.433Z,7.83
2019-05-14T14:39:51.856Z,8.60
2019-05-14T14:44:57.389Z,8.27
2019-05-14T14:50:02.922Z,7.73
2019-05-14T14:55:08.558Z,6.97
2019-05-14T15:00:14.507Z,6.80
2019-05-14T15:05:20.349Z,7.50
2019-05-14T15:10:28.244Z,7.43
2019-05-14T15:15:33.253Z,7.50
2019-05-14T15:20:38.747Z,7.00
2019-05-14T15:25:45.393Z,7.13
2019-05-14T15:30:50.811Z,6.37
2019-05-14T15:35:58.230Z,6.10
2019-05-14T15:41:03.476Z,4.53
2019-05-14T15:46:09.013Z,4.60
2019-05-14T15:51:15.077Z,3.00
2019-05-14T15:56:21.093Z,2.47
2019-05-14T16:01:28.503Z,2.50
2019-05-14T16:06:34.151Z,2.07
2019-05-14T16:11:39.685Z,2.47
2019-05-14T16:16:45.435Z,2.30
2019-05-14T16:21:51.107Z,1.90
2019-05-14T16:26:59.625Z,1.90
2019-05-14T16:32:03.757Z,1.67
2019-05-14T16:37:11.022Z,1.90
2019-05-14T16:42:20.719Z,1.87
2019-05-14T16:47:23.576Z,1.53
2019-05-14T16:52:29.159Z,1.83
2019-05-14T16:57:34.845Z,1.93
2019-05-14T17:02:40.496Z,2.03
2019-05-14T17:07:46.077Z,2.17
2019-05-14T17:12:57.220Z,1.63
2019-05-14T17:17:59.894Z,1.57
2019-05-14T17:23:05.582Z,1.40
2019-05-14T17:28:11.045Z,1.50
2019-05-14T17:33:18.577Z,1.67
2019-05-14T17:38:31.011Z,1.70
2019-05-14T17:43:39.070Z,1.40
2019-05-14T17:48:43.999Z,1.40
2019-05-14T17:53:49.383Z,1.40
2019-05-14T17:58:54.891Z,1.40
2019-05-14T18:04:00.556Z,1.73
2019-05-14T18:09:08.587Z,1.80
2019-05-14T18:14:13.991Z,1.57
2019-05-14T18:19:19.424Z,1.73
2019-05-14T18:24:24.790Z,2.07
2019-05-14T18:29:30.347Z,1.50
2019-05-14T18:34:35.759Z,1.67
2019-05-14T18:39:41.209Z,1.70
2019-05-14T18:44:46.794Z,1.77
2019-05-14T18:49:52.191Z,2.07
2019-05-14T18:54:59.052Z,1.70
2019-05-14T19:00:05.112Z,1.92
2019-05-14T19:05:11.276Z,1.80
2019-05-14T19:10:18.562Z,1.80
2019-05-14T19:15:24.189Z,2.47
2019-05-14T19:20:29.985Z,1.82
2019-05-14T19:25:35.520Z,2.33
2019-05-14T19:30:40.991Z,1.67
2019-05-14T19:35:48.386Z,1.87
2019-05-14T19:40:53.402Z,2.50
2019-05-14T19:45:59.056Z,2.17
2019-05-14T19:51:04.550Z,2.77
2019-05-14T19:56:10.114Z,2.00
2019-05-14T20:01:15.717Z,2.33
2019-05-14T20:06:21.381Z,2.10
2019-05-14T20:11:28.962Z,2.00
2019-05-14T20:16:34.805Z,1.72
2019-05-14T20:21:40.612Z,2.10
2019-05-14T20:26:48.615Z,1.63
2019-05-14T20:31:53.140Z,2.83
2019-05-14T20:36:58.881Z,2.07
2019-05-14T20:42:04.406Z,1.60
2019-05-14T20:47:09.921Z,1.60
2019-05-14T20:52:15.331Z,1.97
2019-05-14T20:57:26.882Z,2.23
2019-05-14T21:02:29.498Z,2.60
2019-05-14T21:07:35.237Z,2.45
2019-05-14T21:12:40.736Z,1.90
2019-05-14T21:17:50.168Z,2.30
2019-05-14T21:22:53.634Z,2.50
2019-05-14T21:27:59.397Z,2.00
2019-05-14T21:33:04.920Z,1.97
2019-05-14T21:38:10.926Z,2.00
2019-05-14T21:43:18.552Z,1.70
2019-05-14T21:48:23.717Z,1.80
2019-05-14T21:53:30.379Z,2.27
2019-05-14T21:58:35.951Z,2.77
2019-05-14T22:03:41.792Z,2.03
2019-05-14T22:08:48.832Z,2.37
2019-05-14T22:13:54.361Z,2.23
2019-05-14T22:18:59.750Z,2.00
2019-05-14T22:24:05.046Z,2.00
2019-05-14T22:29:10.467Z,2.07
2019-05-14T22:34:18.290Z,2.03
2019-05-14T22:39:23.070Z,1.87
2019-05-14T22:44:28.409Z,2.17
2019-05-14T22:49:33.804Z,2.33
2019-05-14T22:54:39.144Z,2.47
2019-05-14T22:59:48.633Z,2.07
2019-05-14T23:04:53.891Z,2.43
2019-05-14T23:09:59.332Z,2.50
2019-05-14T23:15:13.903Z,3.10
2019-05-14T23:20:19.780Z,2.40
2019-05-14T23:25:25.244Z,2.77
2019-05-14T23:30:33.579Z,2.37
2019-05-14T23:35:39.296Z,2.60
2019-05-14T23:40:44.656Z,3.50
2019-05-14T23:45:49.881Z,2.70
2019-05-14T23:50:55.190Z,3.70
2019-05-14T23:56:00.590Z,2.40
